Terminal Aerodrome Forecast
Issued by NWS

Home | Current Version | Previous Version | Text Only | Print | Product List | Glossary On
Versions: 1 2 3 4 5 6 7 8 9 10 11 12 13 14 15
000
FTUS43 KIND 301500 AAB
TAFBMG
TAF AMD
KBMG 301543Z 3016/3112 23012G20KT P6SM -RA SCT070 OVC090
      TEMPO 3016/3018 2SM BR
     FM301800 21010G20KT P6SM VCTS BKN040CB
     FM310100 20009KT 5SM -TSRA BKN035CB
     FM310700 21006KT 5SM BR VCTS BKN015CB=

USA.gov is the U.S. government's official web portal to all federal, state and local government web resources and services.